Flight Track Log - Related Links

Times and Time Zones

All times are in EDT time to prevent confusion due to time zone crossing. See the RPA3228 flight status page for this flight to view local times or setup timezone preferences in your user account.

Time Position Orientation Groundspeed Altitude Reporting Facility
EDT Latitude Longitude Course Direction KTS MPH feet Rate Location/Type
Sat 10:32:38 AM 38.8833 -77.0667 North 169 194 2,300  Level Potomac TRACON
Sat 10:33:39 AM 38.9333 -77.1167 322° Northwest 228 262 4,700 2,804 Climbing Potomac TRACON
Sat 10:34:00 AM 39.2243 -77.1831 339° North  Level Estimated
Sat 10:35:00 AM 39.3484 -77.2319 339° North  Level Estimated
Sat 10:35:42 AM 39.0061 -77.2611 303° West 250 288 10,900  Level Washington Center
Sat 10:36:00 AM 39.4724 -77.2809 North  Level Estimated
Sat 10:36:42 AM 39.0214 -77.3603 281° West 258 297 13,100  Level Washington Center
Sat 10:37:00 AM 39.5965 -77.3301 North  Level Estimated
Sat 10:37:43 AM 39.0594 -77.4494 299° West 277 319 16,300  Level Washington Center
Sat 10:38:41 AM 39.1211 -77.5206 318° Northwest 289 333 17,000 1,282 Climbing Washington Center
Sat 10:41:09 AM 39.4069 -77.4892 North 403 464 20,700 1,644 Climbing New York Center
Sat 10:42:09 AM 39.5269 -77.4733 North 416 479 22,700 1,900 Climbing New York Center
Sat 10:43:09 AM 39.6528 -77.4611 North 435 501 24,500 1,700 Climbing New York Center
Sat 10:44:09 AM 39.7700 -77.4858 351° North 435 501 26,100 1,700 Climbing New York Center
Sat 10:45:09 AM 39.8847 -77.5267 345° North 430 495 27,900 950 Climbing New York Center
Sat 10:46:09 AM 40.0011 -77.5678 345° North 430 495 28,000 50 Climbing New York Center
Sat 10:47:09 AM 40.1239 -77.6094 345° North 430 495 28,000  Level New York Center
Sat 10:48:09 AM 40.2464 -77.6514 345° North 440 506 28,000  Level New York Center
Sat 10:49:09 AM 40.3628 -77.6931 345° North 440 506 28,000  Level New York Center
Sat 10:50:09 AM 40.4814 -77.7350 345° North 445 512 28,000  Level New York Center
Sat 10:51:09 AM 40.5978 -77.7769 345° North 445 512 28,000  Level New York Center
Sat 10:52:09 AM 40.7181 -77.8219 344° North 445 512 28,000  Level New York Center
Sat 10:53:09 AM 40.8383 -77.8647 345° North 445 512 28,000  Level New York Center
Sat 10:54:22 AM 40.9786 -77.9153 345° North 445 512 28,000  Level Cleveland Center
Sat 10:55:24 AM 41.0950 -77.9589 344° North 441 507 28,000  Level Cleveland Center
Sat 10:56:26 AM 41.2108 -78.0008 345° North 438 504 28,000  Level Cleveland Center
Sat 10:57:28 AM 41.3267 -78.0425 345° North 437 503 28,000 -244 Level Cleveland Center
Sat 10:58:29 AM 41.4650 -78.0942 344° North 436 502 27,500 -829 Descending Cleveland Center
Sat 10:59:31 AM 41.5794 -78.1367 344° North 432 497 26,300 -1,258 Descending Cleveland Center
Sat 11:00:33 AM 41.6908 -78.1783 344° North 423 487 24,900 -1,452 Descending Cleveland Center
Sat 11:01:35 AM 41.7950 -78.2167 345° North 398 458 23,300 -1,756 Descending Cleveland Center
Sat 11:02:36 AM 41.8944 -78.2522 345° North 380 437 21,300 -2,098 Descending Cleveland Center
Sat 11:03:38 AM 42.0092 -78.2956 344° North 362 417 19,000 -2,081 Descending Cleveland Center
Sat 11:04:40 AM 42.1006 -78.3306 344° North 348 400 17,000 -1,805 Descending Cleveland Center
Sat 11:05:41 AM 42.1864 -78.3619 345° North 335 386 15,300 -1,659 Descending Cleveland Center
Sat 11:06:43 AM 42.2719 -78.3939 345° North 321 369 13,600 -1,659 Descending Cleveland Center
Sat 11:07:44 AM 42.3531 -78.4239 345° North 307 353 11,900 -1,268 Descending Cleveland Center
Sat 11:08:46 AM 42.4347 -78.4508 346° North 305 351 11,000 -976 Descending Cleveland Center
Sat 11:09:47 AM 42.5156 -78.4597 355° North 295 339 9,900 -1,463 Descending Cleveland Center
Sat 11:10:49 AM 42.6067 -78.4703 355° North 279 321 8,000 -1,597 Descending Cleveland Center
Sat 11:11:51 AM 42.6847 -78.4811 354° North 279 321 6,600 -976 Descending Cleveland Center
Sat 11:12:52 AM 42.7664 -78.4928 354° North 279 321 6,000 -390 Descending Cleveland Center
Sat 11:13:54 AM 42.8386 -78.5031 354° North 273 314 5,800 -732 Descending Cleveland Center
Sat 11:14:55 AM 42.9147 -78.5128 355° North 266 306 4,500 -1,131 Descending Cleveland Center
Sat 11:15:56 AM 42.9842 -78.5219 354° North 261 300 3,500 -683 Descending Cleveland Center
Sat 11:16:58 AM 43.0358 -78.5658 328° Northwest 203 234 3,100 -537 Descending Cleveland Center
Sat 11:17:59 AM 43.0214 -78.6239 251° West 168 193 2,400 -535 Descending Cleveland Center
Sat 11:18:39 AM 43.0000 -78.6500 222° Southwest 160 184 2,200 -535 Descending Buffalo TRACON
Sat 11:19:40 AM 42.9667 -78.6833 216° Southwest 137 158 1,500 -689 Descending Buffalo TRACON

Login

Don't have an account? Register now (free) for customized features, flight alerts, and more!